Terminal Aerodrome Forecast
Issued by NWS Memphis, TN

Home | Current Version | Previous Version | Text Only | Print | Product List | Glossary On
Versions: 1 2 3 4 5 6 7 8 9 10 11 12 13
000
FTUS44 KMEG 231731
TAFJBR
TAF
KJBR 231731Z 2318/2418 11010KT 3SM RA BR OVC008
     FM232300 19008KT P6SM SCT008 OVC015
     FM240600 23020G30KT P6SM VCSH BKN015
     FM241400 26017G27KT P6SM BKN025=

USA.gov is the U.S. government's official web portal to all federal, state and local government web resources and services.